• Join FlightAware (Why Join?)
  • Login
  • US Flag 
02:23AM EDT


 

Airport Tracker/Info


-or-


 

Live Flight TrackerFlight Track Log ✈ N137D ✈ 04-Sep-2013 ✈ KLVN - KFWA

Flight Track Log - Related Links

Times and Time Zones

All times are in EDT time to prevent confusion due to time zone crossing. See the N137D flight status page for this flight to view local times or setup timezone preferences in your user account.

Time Position Orientation Groundspeed Altitude Reporting Facility
EDT Latitude Longitude Course Direction KTS MPH feet Rate Location/Type
06:27PM 44.6167 -93.2667 180° South 140 161 2,500  Level Minneapolis TRACON
06:28PM 44.5667 -93.2667 180° South 152 175 3,100 540 Climbing Minneapolis TRACON
06:29PM 44.5500 -93.2000 109° East 174 200 3,600 600 Climbing Minneapolis TRACON
06:30PM 44.5333 -93.1500 115° Southeast 156 180 4,400 780 Climbing Minneapolis TRACON
06:31PM 44.5286 -93.1292 108° East 157 181 4,800 720 Climbing Minneapolis Center
06:32PM 44.5150 -93.0700 108° East 161 185 5,600 840 Climbing Minneapolis Center
06:33PM 44.4986 -93.0092 111° Southeast 167 192 6,600 1,140 Climbing Minneapolis Center
06:34PM 44.4808 -92.9397 110° East 160 184 8,000 1,080 Climbing Minneapolis Center
06:35PM 44.4669 -92.8861 110° East 150 173 8,900 480 Climbing Minneapolis Center
06:36PM 44.4486 -92.8217 112° Southeast 181 208 9,000  Climbing Minneapolis Center
06:37PM 44.4292 -92.7456 110° East 205 236 9,000  Level Minneapolis Center
06:38PM 44.4086 -92.6714 111° Southeast 206 237 9,000  Level Minneapolis Center
06:39PM 44.3889 -92.5958 110° East 207 238 9,000  Level Minneapolis Center
06:40PM 44.3658 -92.5047 109° East 208 239 9,000  Level Minneapolis Center
06:41PM 44.3456 -92.4303 111° Southeast 205 236 9,000  Level Minneapolis Center
06:42PM 44.3194 -92.3542 116° Southeast 207 238 9,100  Climbing Minneapolis Center
06:43PM 44.2878 -92.2800 121° Southeast 207 238 9,100  Level Minneapolis Center
06:44PM 44.2597 -92.2106 119° Southeast 207 238 9,100  Level Minneapolis Center
06:45PM 44.2289 -92.1356 120° Southeast 208 239 9,100  Level Minneapolis Center
06:46PM 44.2006 -92.0667 120° Southeast 207 238 9,100 -60 Level Minneapolis Center
06:47PM 44.1694 -91.9908 120° Southeast 210 242 9,000 -60 Descending Minneapolis Center
06:48PM 44.1400 -91.9233 121° Southeast 207 238 9,000  Level Minneapolis Center
06:49PM 44.1089 -91.8483 120° Southeast 208 239 9,000  Level Minneapolis Center
06:50PM 44.0800 -91.7789 120° Southeast 209 241 9,000  Level Minneapolis Center
06:51PM 44.0483 -91.7025 120° Southeast 212 244 9,000  Level Minneapolis Center
06:52PM 44.0175 -91.6306 121° Southeast 210 242 9,000  Level Minneapolis Center
06:53PM 43.9861 -91.5556 120° Southeast 212 244 9,000  Level Minneapolis Center
06:54PM 43.9572 -91.4883 121° Southeast 214 246 9,000  Level Minneapolis Center
06:55PM 43.9214 -91.4200 126° Southeast 211 243 9,000  Level Minneapolis Center
06:56PM 43.8831 -91.3531 128° Southeast 214 246 9,000  Level Minneapolis Center
06:58PM 43.8486 -91.2822 124° Southeast 214 246 9,000  Level Minneapolis Center
06:59PM 43.8192 -91.2072 119° Southeast 213 245 9,000  Level Minneapolis Center
07:00PM 43.7883 -91.1325 120° Southeast 214 246 9,000  Level Minneapolis Center
07:01PM 43.7589 -91.0567 118° Southeast 215 247 9,000  Level Minneapolis Center
07:02PM 43.7403 -90.9750 107° East 214 246 9,000  Level Minneapolis Center
07:03PM 43.7214 -90.9003 109° East 214 246 9,000  Level Minneapolis Center
07:04PM 43.7000 -90.8192 110° East 214 246 9,000  Level Minneapolis Center
07:05PM 43.6778 -90.7394 111° Southeast 214 246 9,000  Level Minneapolis Center
07:06PM 43.6575 -90.6589 109° East 213 245 9,000  Level Minneapolis Center
07:07PM 43.6464 -90.6144 109° East 214 246 9,000  Level Chicago Center
07:08PM 43.6203 -90.5214 111° Southeast 215 247 9,000  Level Chicago Center
07:09PM 43.6000 -90.4450 110° East 215 247 9,000  Level Chicago Center
07:10PM 43.5794 -90.3661 110° East 217 250 9,000  Level Chicago Center
07:11PM 43.5586 -90.2894 111° Southeast 217 250 9,100  Climbing Chicago Center
07:12PM 43.5378 -90.2122 110° East 217 250 9,100  Level Chicago Center
07:13PM 43.5131 -90.1203 110° East 216 249 9,100  Level Chicago Center
07:14PM 43.4911 -90.0428 111° Southeast 217 250 9,100  Level Chicago Center
07:15PM 43.4694 -89.9650 111° Southeast 218 251 9,100  Level Chicago Center
07:16PM 43.4483 -89.8875 111° Southeast 219 252 9,100  Level Chicago Center
07:17PM 43.4228 -89.7964 111° Southeast 217 250 9,100  Level Chicago Center
07:18PM 43.4014 -89.7192 111° Southeast 217 250 9,100  Level Chicago Center
07:19PM 43.3797 -89.6417 111° Southeast 218 251 9,100  Level Chicago Center
07:20PM 43.3575 -89.5647 112° Southeast 218 251 9,100  Level Chicago Center
07:21PM 43.3356 -89.4875 111° Southeast 219 252 9,100  Level Chicago Center
07:22PM 43.3100 -89.3942 111° Southeast 220 253 9,100  Level Chicago Center
07:23PM 43.2883 -89.3172 111° Southeast 219 252 9,100  Level Chicago Center
07:24PM 43.2664 -89.2406 111° Southeast 218 251 9,100  Level Chicago Center
07:25PM 43.2456 -89.1631 110° East 218 251 9,100  Level Chicago Center
07:26PM 43.2239 -89.0867 111° Southeast 218 251 9,100  Level Chicago Center
07:27PM 43.1931 -88.9917 114° Southeast 222 255 9,100  Level Chicago Center
07:28PM 43.1700 -88.9158 113° Southeast 220 253 9,100  Level Chicago Center
07:29PM 43.1464 -88.8378 112° Southeast 222 255 9,100 -60 Level Chicago Center
07:30PM 43.1236 -88.7586 111° Southeast 221 254 9,000 -60 Descending Chicago Center
07:31PM 43.1014 -88.6819 112° Southeast 219 252 9,000  Level Chicago Center
07:32PM 43.0742 -88.5881 112° Southeast 221 254 9,000  Level Chicago Center
07:34PM 43.0514 -88.5125 112° Southeast 218 251 9,000  Level Chicago Center
07:35PM 43.0303 -88.4417 112° Southeast 222 255 9,000  Level Chicago Center
07:36PM 43.0072 -88.3644 112° Southeast 222 255 9,000  Level Chicago Center
07:37PM 42.9806 -88.2697 111° Southeast 222 255 9,000  Level Chicago Center
07:38PM 42.9564 -88.1928 113° Southeast 222 255 9,000  Level Chicago Center
07:39PM 42.9336 -88.1150 112° Southeast 221 254 9,000  Level Chicago Center
07:40PM 42.9094 -88.0381 113° Southeast 221 254 9,000  Level Chicago Center
07:41PM 42.8872 -87.9594 111° Southeast 222 255 9,000  Level Chicago Center
07:42PM 42.8625 -87.8808 113° Southeast 225 259 9,000  Level Chicago Center
07:43PM 42.8381 -87.7975 112° Southeast 224 258 9,000  Level Chicago Center
07:44PM 42.8114 -87.7114 113° Southeast 221 254 9,000  Level Chicago Center
07:45PM 42.7878 -87.6328 112° Southeast 224 258 9,000  Level Chicago Center
07:46PM 42.7642 -87.5550 112° Southeast 223 257 9,000  Level Chicago Center
07:47PM 42.7394 -87.4769 113° Southeast 227 261 9,000  Level Chicago Center
07:48PM 42.7158 -87.3994 112° Southeast 224 258 9,000  Level Chicago Center
07:49PM 42.6881 -87.3067 112° Southeast 221 254 9,000  Level Chicago Center
07:50PM 42.6669 -87.2278 110° East 222 255 9,000  Level Chicago Center
07:51PM 42.6444 -87.1489 111° Southeast 225 259 9,000  Level Chicago Center
07:52PM 42.6225 -87.0703 111° Southeast 225 259 9,000  Level Chicago Center
07:53PM 42.5992 -86.9925 112° Southeast 224 258 9,000  Level Chicago Center
07:54PM 42.5450 -86.9267 138° Southeast 232 267 9,100  Climbing Chicago Center
07:55PM 42.4981 -86.8722 139° Southeast 225 259 9,100  Level Chicago Center
07:56PM 42.4508 -86.8169 139° Southeast 225 259 9,100  Level Chicago Center
07:57PM 42.4031 -86.7614 139° Southeast 227 261 9,100  Level Chicago Center
07:58PM 42.3544 -86.7081 141° Southeast 226 260 9,100  Level Chicago Center
07:59PM 42.3056 -86.6531 140° Southeast 228 262 9,100  Level Chicago Center
08:00PM 42.2558 -86.5969 140° Southeast 225 259 9,100  Level Chicago Center
08:01PM 42.1983 -86.5317 140° Southeast 225 259 9,100  Level Chicago Center
08:02PM 42.1503 -86.4783 141° Southeast 225 259 9,100  Level Chicago Center
08:03PM 42.1025 -86.4239 140° Southeast 225 259 9,100  Level Chicago Center
08:05PM 42.0547 -86.3694 140° Southeast 227 261 9,100  Level Chicago Center
08:06PM 42.0061 -86.3150 140° Southeast 227 261 9,100  Level Chicago Center
08:07PM 41.9581 -86.2617 140° Southeast 226 260 9,100  Level Chicago Center
08:08PM 41.8997 -86.1972 141° Southeast 226 260 9,100  Level Chicago Center
08:09PM 41.8517 -86.1442 141° Southeast 225 259 9,100  Level Chicago Center
08:10PM 41.8161 -86.0761 125° Southeast 228 262 9,100  Level Chicago Center
08:11PM 41.7856 -86.0044 120° Southeast 225 259 9,100 -300 Level Chicago Center
08:12PM 41.7489 -85.9483 131° Southeast 239 275 8,500 -1,080 Descending Chicago Center
08:13PM 41.7111 -86.0075 229° Southwest 218 251 6,900 -1,560 Descending Chicago Center
08:14PM 41.6844 -86.0900 247° West 202 232 5,300 -1,440 Descending Chicago Center
08:15PM 41.6733 -86.1586 258° West 195 224 4,000 -600 Descending Chicago Center
08:16PM 41.6650 -86.2125 258° West 169 194 4,100  Climbing Chicago Center
08:17PM 41.6667 -86.2558 273° West 141 162 4,100  Level Chicago Center
08:18PM 41.6972 -86.2414 19° North 148 170 4,100 360 Level Chicago Center
08:19PM 41.6933 -86.1856 95° East 171 197 4,900 480 Climbing Chicago Center
08:20PM 41.6514 -86.1253 133° Southeast 184 212 5,100 60 Climbing Chicago Center
08:21PM 41.6108 -86.0686 134° Southeast 203 234 5,100  Level Chicago Center
08:22PM 41.5708 -86.0111 133° Southeast 210 242 5,100  Level Chicago Center
08:23PM 41.5306 -85.9558 134° Southeast 210 242 5,100  Level Chicago Center
08:24PM 41.4917 -85.8997 133° Southeast 209 241 5,100  Level Chicago Center
08:25PM 41.4436 -85.8333 134° Southeast 208 239 5,100  Level Chicago Center
08:26PM 41.4042 -85.7789 134° Southeast 207 238 5,100  Level Chicago Center
08:27PM 41.3650 -85.7239 133° Southeast 207 238 5,100  Level Chicago Center
08:28PM 41.3253 -85.6678 133° Southeast 208 239 5,100  Level Chicago Center
08:29PM 41.2844 -85.6150 136° Southeast 208 239 5,100  Level Chicago Center
08:30PM 41.2492 -85.5378 121° Southeast 211 243 5,100  Level Chicago Center
08:31PM 41.2231 -85.4708 117° Southeast 208 239 5,100 -240 Level Chicago Center
08:32PM 41.1981 -85.4025 116° Southeast 207 238 4,700 -540 Descending Chicago Center
08:33PM 41.1742 -85.3344 115° Southeast 206 237 4,100 -600 Descending Chicago Center
08:34PM 41.1492 -85.2661 116° Southeast 206 237 3,500 -540 Descending Chicago Center
08:36PM 41.1131 -85.2119 131° Southeast 202 232 3,100 -240 Descending Chicago Center
08:37PM 41.0694 -85.1631 140° Southeast 186 214 3,100 -60 Level Chicago Center
08:38PM 41.0325 -85.1489 164° South 157 181 3,000 -360 Descending Chicago Center
08:39PM 40.9969 -85.1294 158° South 145 167 2,400 -540 Descending Chicago Center
08:40PM 41.0189 -85.1083 36° Northeast 147 169 2,000 -300 Descending Chicago Center
08:41PM 40.9908 -85.1125 186° South 136 157 1,800  Descending Chicago Center
08:42PM 40.9675 -85.0767 131° Southeast 132 152 2,100 300 Climbing Chicago Center
08:43PM 40.9386 -85.1008 212° Southwest 132 152 2,500 360 Climbing Chicago Center